createdAt,value
2019-03-26T00:02:08.155Z,98816.52
2019-03-26T00:04:36.748Z,98817.31
2019-03-26T00:07:05.462Z,98820.92
2019-03-26T00:09:34.179Z,98825.85
2019-03-26T00:12:02.898Z,98829.92
2019-03-26T00:14:31.591Z,98833.50
2019-03-26T00:17:00.315Z,98830.58
2019-03-26T00:19:28.999Z,98839.16
2019-03-26T00:21:57.751Z,98830.15
2019-03-26T00:24:26.455Z,98829.28
2019-03-26T00:26:55.099Z,98827.98
2019-03-26T00:29:23.688Z,98829.36
2019-03-26T00:31:52.258Z,98829.89
2019-03-26T00:34:20.990Z,98836.38
2019-03-26T00:36:49.623Z,98837.67
2019-03-26T00:39:18.307Z,98836.06
2019-03-26T00:41:46.994Z,98834.02
2019-03-26T00:44:15.719Z,98832.48
2019-03-26T00:46:44.355Z,98838.11
2019-03-26T00:49:12.968Z,98837.89
2019-03-26T00:51:41.679Z,98843.87
2019-03-26T00:54:10.339Z,98840.91
2019-03-26T00:56:39.093Z,98833.61
2019-03-26T00:59:07.853Z,98839.34
2019-03-26T01:01:36.569Z,98844.14
2019-03-26T01:04:05.405Z,98838.05
2019-03-26T01:06:34.157Z,98839.23
2019-03-26T01:09:02.858Z,98838.00
2019-03-26T01:11:31.424Z,98837.86
2019-03-26T01:14:00.041Z,98845.14
2019-03-26T01:16:28.755Z,98844.43
2019-03-26T01:18:57.498Z,98846.48
2019-03-26T01:21:26.073Z,98844.30
2019-03-26T01:23:54.840Z,98841.69
2019-03-26T01:26:26.172Z,98843.43
2019-03-26T01:28:54.984Z,98841.12
2019-03-26T01:31:23.697Z,98845.79
2019-03-26T01:33:52.395Z,98845.13
2019-03-26T01:36:21.152Z,98845.25
2019-03-26T01:38:49.790Z,98842.98
2019-03-26T01:41:18.426Z,98849.60
2019-03-26T01:43:47.278Z,98852.33
2019-03-26T01:46:16.002Z,98846.60
2019-03-26T01:48:44.691Z,98848.20
2019-03-26T01:51:13.408Z,98848.48
2019-03-26T01:53:42.027Z,98852.36
2019-03-26T01:56:10.780Z,98852.53
2019-03-26T01:58:39.441Z,98856.88
2019-03-26T02:01:08.200Z,98855.30
2019-03-26T02:03:36.772Z,98850.97
2019-03-26T02:06:05.519Z,98858.84
2019-03-26T02:08:34.170Z,98856.59
2019-03-26T02:11:02.755Z,98856.03
2019-03-26T02:13:31.474Z,98862.49
2019-03-26T02:16:00.390Z,98869.96
2019-03-26T02:18:28.951Z,98867.38
2019-03-26T02:20:57.853Z,98871.67
2019-03-26T02:23:26.416Z,98868.41
2019-03-26T02:25:55.019Z,98874.11
2019-03-26T02:28:23.645Z,98871.25
2019-03-26T02:30:53.772Z,98869.03
2019-03-26T02:33:22.447Z,98872.40
2019-03-26T02:35:51.018Z,98870.14
2019-03-26T02:38:19.596Z,98869.36
2019-03-26T02:40:48.262Z,98867.21
2019-03-26T02:43:16.852Z,98870.25
2019-03-26T02:45:45.590Z,98871.94
2019-03-26T02:48:14.220Z,98871.17
2019-03-26T02:50:42.897Z,98875.97
2019-03-26T02:53:11.519Z,98870.79
2019-03-26T02:55:40.190Z,98872.53
2019-03-26T02:58:08.812Z,98876.16
2019-03-26T03:00:37.472Z,98871.02
2019-03-26T03:03:06.676Z,98875.23
2019-03-26T03:05:36.285Z,98874.91
2019-03-26T03:08:05.093Z,98873.83
2019-03-26T03:10:33.721Z,98880.09
2019-03-26T03:13:05.342Z,98875.34
2019-03-26T03:15:33.901Z,98878.45
2019-03-26T03:18:02.478Z,98877.51
2019-03-26T03:20:31.041Z,98881.39
2019-03-26T03:22:59.718Z,98883.58
2019-03-26T03:25:28.344Z,98878.02
2019-03-26T03:27:56.983Z,98886.78
2019-03-26T03:30:25.619Z,98883.02
2019-03-26T03:32:54.117Z,98885.21
2019-03-26T03:35:22.733Z,98891.63
2019-03-26T03:37:51.341Z,98898.06
2019-03-26T03:40:19.935Z,98903.25
2019-03-26T03:42:48.566Z,98904.59
2019-03-26T03:45:21.493Z,98901.91
2019-03-26T03:47:50.927Z,98902.27
2019-03-26T03:50:19.560Z,98904.36
2019-03-26T03:52:49.196Z,98906.60
2019-03-26T03:55:18.274Z,98909.73
2019-03-26T03:57:52.752Z,98911.63
2019-03-26T04:00:34.721Z,98922.48
2019-03-26T04:03:04.688Z,98925.03
2019-03-26T04:05:33.653Z,98928.52
2019-03-26T04:08:02.285Z,98931.16
2019-03-26T04:10:30.967Z,98938.08
2019-03-26T04:13:00.833Z,98939.02
2019-03-26T04:15:29.328Z,98944.66
2019-03-26T04:17:57.899Z,98949.07
2019-03-26T04:20:26.528Z,98957.37
2019-03-26T04:22:55.207Z,98962.20
2019-03-26T04:25:23.842Z,98969.60
2019-03-26T04:27:53.711Z,98971.34
2019-03-26T04:30:28.144Z,98972.63
2019-03-26T04:32:58.115Z,98975.14
2019-03-26T04:35:26.741Z,98976.70
2019-03-26T04:37:55.242Z,98979.11
2019-03-26T04:40:23.841Z,98983.70
2019-03-26T04:42:52.344Z,98989.44
2019-03-26T04:45:20.953Z,98981.72
2019-03-26T04:47:49.504Z,98976.98
2019-03-26T04:50:18.136Z,98977.21
2019-03-26T04:52:46.811Z,98975.82
2019-03-26T04:55:15.442Z,98976.56
2019-03-26T04:57:44.029Z,98977.73
2019-03-26T05:00:13.009Z,98984.21
2019-03-26T05:02:41.646Z,98988.09
2019-03-26T05:05:13.216Z,98991.14
2019-03-26T05:07:41.840Z,99000.54
2019-03-26T05:10:11.135Z,98999.87
2019-03-26T05:12:39.611Z,99000.00
2019-03-26T05:15:08.681Z,99006.37
2019-03-26T05:17:37.312Z,99006.22
2019-03-26T05:20:07.585Z,99003.28
2019-03-26T05:22:36.719Z,99003.11
2019-03-26T05:25:07.159Z,99002.05
2019-03-26T05:27:45.242Z,99002.87
2019-03-26T05:30:07.838Z,99003.82
2019-03-26T05:32:36.482Z,99003.95
2019-03-26T05:35:05.718Z,99007.55
2019-03-26T05:37:34.322Z,99008.54
2019-03-26T05:40:03.020Z,99009.25
2019-03-26T05:42:31.573Z,99005.40
2019-03-26T05:45:00.376Z,99011.92
2019-03-26T05:47:28.893Z,99007.81
2019-03-26T05:49:57.494Z,99016.68
2019-03-26T05:52:26.067Z,99013.45
2019-03-26T05:54:54.666Z,99013.89
2019-03-26T05:57:23.950Z,99018.22
2019-03-26T05:59:53.074Z,99017.62
2019-03-26T06:02:21.846Z,99020.02
2019-03-26T06:04:50.738Z,99019.09
2019-03-26T06:07:19.485Z,99023.20
2019-03-26T06:09:48.316Z,99015.92
2019-03-26T06:12:19.957Z,99024.73
2019-03-26T06:14:49.404Z,99020.55
2019-03-26T06:17:18.390Z,99026.45
2019-03-26T06:19:47.068Z,99030.88
2019-03-26T06:22:15.922Z,99030.92
2019-03-26T06:24:47.529Z,99026.37
2019-03-26T06:27:23.797Z,99031.17
2019-03-26T06:29:54.313Z,99034.04
2019-03-26T06:32:24.397Z,99034.83
2019-03-26T06:34:53.384Z,99033.89
2019-03-26T06:37:23.392Z,99032.67
2019-03-26T06:39:58.372Z,99040.69
2019-03-26T06:42:27.712Z,99039.87
2019-03-26T06:44:56.707Z,99045.84
2019-03-26T06:47:25.310Z,99045.45
2019-03-26T06:49:53.994Z,99046.85
2019-03-26T06:52:22.686Z,99035.37
2019-03-26T06:54:54.426Z,99034.50
2019-03-26T06:57:34.860Z,99032.49
2019-03-26T06:59:54.440Z,99034.71
2019-03-26T07:02:23.183Z,99040.77
2019-03-26T07:04:51.880Z,99033.20
2019-03-26T07:07:30.868Z,99040.17
2019-03-26T07:09:52.406Z,99036.94
2019-03-26T07:12:21.077Z,99039.39
2019-03-26T07:14:49.991Z,99039.45
2019-03-26T07:17:18.796Z,99046.18
2019-03-26T07:19:47.547Z,99048.32
2019-03-26T07:22:17.692Z,99044.55
2019-03-26T07:24:46.402Z,99045.16
2019-03-26T07:27:15.187Z,99034.63
2019-03-26T07:29:43.875Z,99037.78
2019-03-26T07:32:12.587Z,99044.67
2019-03-26T07:34:41.401Z,99039.73
2019-03-26T07:37:10.237Z,99039.33
2019-03-26T07:39:40.696Z,99039.33
2019-03-26T07:42:09.251Z,99042.67
2019-03-26T07:44:37.934Z,99043.97
2019-03-26T07:47:06.677Z,99035.07
2019-03-26T07:49:38.174Z,99044.98
2019-03-26T07:52:06.936Z,99034.38
2019-03-26T07:54:35.648Z,99041.97
2019-03-26T07:57:04.441Z,99046.92
2019-03-26T07:59:33.193Z,99036.91
2019-03-26T08:02:01.914Z,99050.41
2019-03-26T08:04:31.549Z,99047.55
2019-03-26T08:07:00.125Z,99048.02
2019-03-26T08:09:31.634Z,99043.23
2019-03-26T08:11:59.201Z,99038.39
2019-03-26T08:14:32.345Z,99043.47
2019-03-26T08:17:01.553Z,99032.92
2019-03-26T08:19:33.460Z,99037.02
2019-03-26T08:22:04.834Z,99043.00
2019-03-26T08:24:37.771Z,99038.22
2019-03-26T08:27:08.478Z,99035.33
2019-03-26T08:29:44.620Z,99035.73
2019-03-26T08:32:13.115Z,99037.62
2019-03-26T08:34:46.796Z,99038.95
2019-03-26T08:37:22.180Z,99039.10
2019-03-26T08:39:51.809Z,99038.18
2019-03-26T08:42:27.168Z,99032.30
2019-03-26T08:44:53.650Z,99035.76
2019-03-26T08:47:32.004Z,99027.26
2019-03-26T08:50:08.608Z,99027.23
2019-03-26T08:52:43.286Z,99033.95
2019-03-26T08:55:15.932Z,99028.70
2019-03-26T08:57:49.576Z,99022.49
2019-03-26T09:00:20.277Z,99018.66
2019-03-26T09:02:50.734Z,99015.58
2019-03-26T09:05:26.054Z,99018.87
2019-03-26T09:08:24.505Z,99025.56
2019-03-26T09:10:51.705Z,99021.34
2019-03-26T09:13:15.835Z,99025.63
2019-03-26T09:15:53.588Z,99029.97
2019-03-26T09:18:26.023Z,99027.19
2019-03-26T09:20:56.306Z,99026.88
2019-03-26T09:23:25.126Z,99028.17
2019-03-26T09:25:55.290Z,99032.32
2019-03-26T09:28:25.989Z,99024.58
2019-03-26T09:30:56.098Z,99028.97
2019-03-26T09:33:27.215Z,99026.56
2019-03-26T09:36:00.017Z,99026.77
2019-03-26T09:38:38.766Z,99031.29
2019-03-26T09:41:00.113Z,99010.22
2019-03-26T09:43:32.928Z,99014.38
2019-03-26T09:46:03.568Z,99024.44
2019-03-26T09:48:38.559Z,99018.02
2019-03-26T09:51:10.659Z,99019.53
2019-03-26T09:53:37.901Z,99029.92
2019-03-26T09:56:06.668Z,99029.47
2019-03-26T09:58:35.477Z,99031.70
2019-03-26T10:01:04.150Z,99034.61
2019-03-26T10:03:32.791Z,99030.77
2019-03-26T10:06:01.462Z,99032.66
2019-03-26T10:08:30.132Z,99027.55
2019-03-26T10:10:58.758Z,99022.58
2019-03-26T10:13:27.430Z,99021.51
2019-03-26T10:15:55.991Z,99014.58
2019-03-26T10:18:24.713Z,99013.59
2019-03-26T10:20:53.384Z,99007.33
2019-03-26T10:23:21.982Z,99011.36
2019-03-26T10:25:50.614Z,99007.81
2019-03-26T10:28:19.298Z,99012.05
2019-03-26T10:30:47.858Z,99009.33
2019-03-26T10:33:16.497Z,99018.66
2019-03-26T10:35:45.087Z,99018.16
2019-03-26T10:38:13.763Z,99013.52
2019-03-26T10:40:42.532Z,99011.88
2019-03-26T10:43:14.083Z,99007.94
2019-03-26T10:45:44.470Z,99002.41
2019-03-26T10:48:13.084Z,98998.64
2019-03-26T10:50:43.340Z,98994.34
2019-03-26T10:53:12.137Z,98999.20
2019-03-26T10:55:40.884Z,98988.09
2019-03-26T10:58:09.638Z,98993.06
2019-03-26T11:00:38.630Z,98999.06
2019-03-26T11:03:07.278Z,98997.56
2019-03-26T11:05:35.954Z,98982.96
2019-03-26T11:08:18.425Z,98983.80
2019-03-26T11:10:48.595Z,98993.70
2019-03-26T11:13:17.159Z,98992.12
2019-03-26T11:15:49.696Z,98996.13
2019-03-26T11:18:23.020Z,98994.64
2019-03-26T11:21:02.488Z,98994.30
2019-03-26T11:23:22.440Z,98998.78
2019-03-26T11:25:52.743Z,99003.41
2019-03-26T11:28:23.130Z,98996.48
2019-03-26T11:30:52.114Z,98997.28
2019-03-26T11:33:20.835Z,99002.84
2019-03-26T11:35:50.086Z,99001.22
2019-03-26T11:38:20.255Z,99017.41
2019-03-26T11:43:39.848Z,99012.69
2019-03-26T11:46:10.140Z,99004.52
2019-03-26T11:48:39.227Z,99009.34
2019-03-26T11:51:08.248Z,99009.20
2019-03-26T11:53:37.193Z,99011.67
2019-03-26T11:56:06.121Z,99022.90
2019-03-26T11:58:37.563Z,99021.23
2019-03-26T12:01:06.252Z,99019.33
2019-03-26T12:03:34.959Z,99030.05
2019-03-26T12:06:03.565Z,99029.17
2019-03-26T12:08:32.254Z,99029.43
2019-03-26T12:11:03.947Z,99031.05
2019-03-26T12:13:34.384Z,99027.91
2019-03-26T12:16:08.876Z,99033.55
2019-03-26T12:18:38.911Z,99035.88
2019-03-26T12:21:10.781Z,99031.16
2019-03-26T12:23:45.964Z,99038.39
2019-03-26T12:26:14.776Z,99043.00
2019-03-26T12:28:43.464Z,99048.47
2019-03-26T12:31:12.213Z,99052.55
2019-03-26T12:33:41.013Z,99048.23
2019-03-26T12:36:09.726Z,99053.33
2019-03-26T12:38:40.202Z,99048.89
2019-03-26T12:41:08.995Z,99053.29
2019-03-26T12:43:37.713Z,99058.06
2019-03-26T12:46:06.492Z,99052.61
2019-03-26T12:48:35.215Z,99057.62
2019-03-26T12:51:03.978Z,99044.64
2019-03-26T12:53:32.534Z,99063.35
2019-03-26T12:56:02.397Z,99065.97
2019-03-26T12:58:36.554Z,99065.55
2019-03-26T13:01:05.887Z,99059.02
2019-03-26T13:03:34.769Z,99062.50
2019-03-26T13:06:03.437Z,99069.83
2019-03-26T13:08:32.142Z,99069.83
2019-03-26T13:11:00.893Z,99075.77
2019-03-26T13:13:32.223Z,99084.33
2019-03-26T13:16:04.153Z,99087.45
2019-03-26T13:18:34.638Z,99095.34
2019-03-26T13:21:04.279Z,99095.34
2019-03-26T13:23:35.070Z,99105.04
2019-03-26T13:26:06.252Z,99105.04
2019-03-26T13:28:36.621Z,99110.56
2019-03-26T13:31:07.870Z,99113.78
2019-03-26T13:33:36.987Z,99123.86
2019-03-26T13:36:06.542Z,99140.56
2019-03-26T13:38:38.239Z,99135.58
2019-03-26T13:41:07.010Z,99135.58
2019-03-26T13:43:38.306Z,99152.79
2019-03-26T13:46:11.576Z,99162.30
2019-03-26T13:48:40.494Z,99173.39
2019-03-26T13:51:09.451Z,99176.18
2019-03-26T13:53:38.260Z,99183.14
2019-03-26T13:56:08.954Z,99191.39
2019-03-26T13:58:37.722Z,99191.45
2019-03-26T14:01:06.437Z,99210.72
2019-03-26T14:03:40.935Z,99220.41
2019-03-26T14:06:10.319Z,99224.85
2019-03-26T14:08:38.998Z,99222.09
2019-03-26T14:11:12.225Z,99229.22
2019-03-26T14:13:41.197Z,99241.03
2019-03-26T14:16:09.819Z,99239.74
2019-03-26T14:18:38.597Z,99253.52
2019-03-26T14:21:07.345Z,99256.85
2019-03-26T14:23:36.001Z,99265.25
2019-03-26T14:26:04.860Z,99267.62
2019-03-26T14:28:36.325Z,99283.17
2019-03-26T14:31:04.956Z,99276.48
2019-03-26T14:33:33.632Z,99284.09
2019-03-26T14:36:02.278Z,99287.12
2019-03-26T14:38:33.782Z,99289.44
2019-03-26T14:41:02.468Z,99298.32
2019-03-26T14:43:31.099Z,99312.20
2019-03-26T14:45:59.655Z,99306.32
2019-03-26T14:48:28.273Z,99318.27
2019-03-26T14:50:56.912Z,99331.41
2019-03-26T14:53:25.479Z,99327.47
2019-03-26T14:55:54.117Z,99327.56
2019-03-26T14:58:22.607Z,99333.17
2019-03-26T15:00:51.245Z,99333.02
2019-03-26T15:03:19.925Z,99326.48
2019-03-26T15:05:48.484Z,99329.81
2019-03-26T15:08:17.225Z,99331.81
2019-03-26T15:10:45.863Z,99347.56
2019-03-26T15:13:17.266Z,99350.33
2019-03-26T15:15:45.843Z,99350.23
2019-03-26T15:18:14.534Z,99363.78
2019-03-26T15:20:43.171Z,99361.44
2019-03-26T15:23:11.822Z,99366.34
2019-03-26T15:25:40.447Z,99377.41
2019-03-26T15:28:11.546Z,99378.33
2019-03-26T15:30:39.408Z,99393.33
2019-03-26T15:33:08.041Z,99392.25
2019-03-26T15:35:36.674Z,99391.95
2019-03-26T15:38:05.351Z,99403.33
2019-03-26T15:40:34.030Z,99402.24
2019-03-26T15:43:02.745Z,99409.67
2019-03-26T15:45:31.267Z,99423.48
2019-03-26T15:47:59.943Z,99422.63
2019-03-26T15:50:40.324Z,99439.59
2019-03-26T15:53:09.412Z,99438.36
2019-03-26T15:55:38.054Z,99441.37
2019-03-26T15:58:06.718Z,99449.94
2019-03-26T16:00:35.410Z,99447.20
2019-03-26T16:03:04.085Z,99441.88
2019-03-26T16:05:32.722Z,99438.06
2019-03-26T16:08:01.337Z,99439.84
2019-03-26T16:10:30.085Z,99438.67
2019-03-26T16:12:58.709Z,99439.58
2019-03-26T16:15:27.382Z,99434.05
2019-03-26T16:17:56.089Z,99437.60
2019-03-26T16:20:24.760Z,99442.95
2019-03-26T16:22:53.507Z,99439.52
2019-03-26T16:25:25.093Z,99433.58
2019-03-26T16:27:53.878Z,99444.47
2019-03-26T16:30:22.564Z,99441.09
2019-03-26T16:32:51.388Z,99444.63
2019-03-26T16:35:20.236Z,99455.50
2019-03-26T16:37:49.056Z,99452.59
2019-03-26T16:40:20.581Z,99446.59
2019-03-26T16:42:49.356Z,99468.82
2019-03-26T16:45:18.155Z,99446.02
2019-03-26T16:47:46.965Z,99469.94
2019-03-26T16:50:15.873Z,99482.11
2019-03-26T16:52:44.778Z,99486.54
2019-03-26T16:55:16.613Z,99492.98
2019-03-26T16:57:48.187Z,99509.47
2019-03-26T17:00:19.833Z,99510.32
2019-03-26T17:02:51.528Z,99518.12
2019-03-26T17:05:23.198Z,99523.22
2019-03-26T17:07:55.099Z,99529.14
2019-03-26T17:10:24.155Z,99517.73
2019-03-26T17:12:53.178Z,99529.34
2019-03-26T17:15:22.268Z,99528.10
2019-03-26T17:17:51.169Z,99540.41
2019-03-26T17:20:23.754Z,99540.73
2019-03-26T17:22:51.229Z,99546.59
2019-03-26T17:25:20.305Z,99555.09
2019-03-26T17:27:49.127Z,99562.70
2019-03-26T17:30:21.113Z,99557.66
2019-03-26T17:32:50.068Z,99568.26
2019-03-26T17:35:19.178Z,99571.42
2019-03-26T17:37:59.011Z,99581.45
2019-03-26T17:40:19.050Z,99577.59
2019-03-26T17:42:47.878Z,99580.33
2019-03-26T17:45:16.986Z,99592.55
2019-03-26T17:47:46.037Z,99596.50
2019-03-26T17:50:15.530Z,99603.06
2019-03-26T17:52:44.715Z,99610.50
2019-03-26T17:55:14.284Z,99611.46
2019-03-26T17:57:43.366Z,99607.56
2019-03-26T18:00:15.879Z,99609.75
2019-03-26T18:02:44.964Z,99609.36
2019-03-26T18:05:28.438Z,99606.70
2019-03-26T18:07:57.721Z,99607.06
2019-03-26T18:10:26.737Z,99614.47
2019-03-26T18:12:55.987Z,99623.42
2019-03-26T18:15:25.058Z,99620.81
2019-03-26T18:17:54.063Z,99610.77
2019-03-26T18:20:32.521Z,99612.36
2019-03-26T18:22:54.063Z,99617.53
2019-03-26T18:25:23.116Z,99618.79
2019-03-26T18:27:52.122Z,99624.34
2019-03-26T18:30:22.633Z,99619.28
2019-03-26T18:32:51.639Z,99620.89
2019-03-26T18:35:20.643Z,99614.88
2019-03-26T18:37:49.847Z,99620.48
2019-03-26T18:40:19.061Z,99622.19
2019-03-26T18:42:48.334Z,99620.48
2019-03-26T18:45:17.427Z,99618.28
2019-03-26T18:47:46.484Z,99627.75
2019-03-26T18:50:15.798Z,99634.19
2019-03-26T18:52:48.032Z,99631.59
2019-03-26T18:55:17.214Z,99635.09
2019-03-26T18:57:46.363Z,99633.34
2019-03-26T19:00:21.155Z,99627.69
2019-03-26T19:02:50.172Z,99632.14
2019-03-26T19:05:19.200Z,99638.16
2019-03-26T19:07:48.342Z,99633.73
2019-03-26T19:10:29.060Z,99635.39
2019-03-26T19:12:58.162Z,99638.09
2019-03-26T19:15:27.249Z,99638.55
2019-03-26T19:18:03.447Z,99634.30
2019-03-26T19:20:32.618Z,99632.14
2019-03-26T19:23:01.635Z,99635.14
2019-03-26T19:25:32.211Z,99639.35
2019-03-26T19:28:01.288Z,99638.45
2019-03-26T19:30:30.304Z,99635.39
2019-03-26T19:33:00.769Z,99641.04
2019-03-26T19:35:29.929Z,99645.30
2019-03-26T19:37:59.058Z,99645.30
2019-03-26T19:40:28.270Z,99643.14
2019-03-26T19:43:09.755Z,99645.91
2019-03-26T19:45:28.292Z,99645.85
2019-03-26T19:48:00.638Z,99643.70
2019-03-26T19:50:29.684Z,99641.59
2019-03-26T19:52:58.777Z,99647.16
2019-03-26T19:55:27.951Z,99644.11
2019-03-26T19:57:59.072Z,99648.36
2019-03-26T20:00:28.236Z,99646.61
2019-03-26T20:02:57.405Z,99649.59
2019-03-26T20:05:26.490Z,99645.17
2019-03-26T20:07:55.546Z,99653.80
2019-03-26T20:10:24.881Z,99645.91
2019-03-26T20:12:54.070Z,99654.54
2019-03-26T20:15:23.790Z,99656.22
2019-03-26T20:17:52.796Z,99656.91
2019-03-26T20:20:21.924Z,99661.20
2019-03-26T20:22:51.150Z,99664.35
2019-03-26T20:25:20.307Z,99670.80
2019-03-26T20:27:49.468Z,99675.27
2019-03-26T20:30:19.030Z,99680.34
2019-03-26T20:32:48.064Z,99685.05
2019-03-26T20:35:17.090Z,99682.75
2019-03-26T20:37:46.205Z,99686.22
2019-03-26T20:40:15.635Z,99684.58
2019-03-26T20:42:44.760Z,99683.16
2019-03-26T20:45:14.695Z,99675.41
2019-03-26T20:47:43.742Z,99681.92
2019-03-26T20:50:13.274Z,99681.02
2019-03-26T20:52:42.351Z,99684.08
2019-03-26T20:55:13.063Z,99681.98
2019-03-26T20:57:42.183Z,99689.08
2019-03-26T21:00:13.175Z,99682.48
2019-03-26T21:02:42.221Z,99688.49
2019-03-26T21:05:11.606Z,99693.48
2019-03-26T21:07:40.664Z,99692.99
2019-03-26T21:10:09.873Z,99693.70
2019-03-26T21:12:38.610Z,99696.60
2019-03-26T21:15:09.408Z,99697.83
2019-03-26T21:17:38.717Z,99695.73
2019-03-26T21:20:11.214Z,99702.20
2019-03-26T21:22:40.231Z,99703.05
2019-03-26T21:25:09.847Z,99702.15
2019-03-26T21:27:38.885Z,99702.02
2019-03-26T21:30:16.166Z,99702.45
2019-03-26T21:32:45.235Z,99704.67
2019-03-26T21:35:15.023Z,99712.36
2019-03-26T21:37:43.931Z,99705.92
2019-03-26T21:40:13.241Z,99718.52
2019-03-26T21:42:41.981Z,99716.41
2019-03-26T21:45:12.936Z,99715.62
2019-03-26T21:47:41.620Z,99713.89
2019-03-26T21:50:10.616Z,99719.80
2019-03-26T21:52:39.331Z,99716.28
2019-03-26T21:55:13.259Z,99717.59
2019-03-26T21:57:40.290Z,99715.43
2019-03-26T22:00:12.857Z,99720.60
2019-03-26T22:02:41.527Z,99721.95
2019-03-26T22:05:10.356Z,99725.02
2019-03-26T22:07:39.053Z,99734.21
2019-03-26T22:10:07.941Z,99742.11
2019-03-26T22:12:36.565Z,99744.71
2019-03-26T22:15:10.386Z,99744.73
2019-03-26T22:17:39.088Z,99751.64
2019-03-26T22:20:08.329Z,99751.17
2019-03-26T22:22:36.937Z,99746.76
2019-03-26T22:25:09.127Z,99753.61
2019-03-26T22:27:37.712Z,99752.74
2019-03-26T22:30:09.330Z,99761.42
2019-03-26T22:32:37.939Z,99758.95
2019-03-26T22:35:08.341Z,99762.47
2019-03-26T22:37:36.976Z,99766.50
2019-03-26T22:40:07.916Z,99780.01
2019-03-26T22:42:36.538Z,99771.83
2019-03-26T22:45:09.726Z,99776.27
2019-03-26T22:47:39.609Z,99781.08
2019-03-26T22:50:09.046Z,99780.13
2019-03-26T22:52:37.689Z,99777.00
2019-03-26T22:55:08.826Z,99779.93
2019-03-26T22:57:38.360Z,99780.67
2019-03-26T23:00:15.846Z,99779.75
2019-03-26T23:02:44.477Z,99786.73
2019-03-26T23:05:14.206Z,99782.88
2019-03-26T23:07:42.775Z,99784.20
2019-03-26T23:10:12.557Z,99782.88
2019-03-26T23:12:41.157Z,99781.17
2019-03-26T23:15:15.256Z,99787.20
2019-03-26T23:17:43.942Z,99790.70
2019-03-26T23:20:12.567Z,99792.86
2019-03-26T23:22:41.128Z,99787.75
2019-03-26T23:25:09.907Z,99796.61
2019-03-26T23:27:38.394Z,99796.74
2019-03-26T23:30:07.966Z,99793.95
2019-03-26T23:32:36.537Z,99792.73
2019-03-26T23:35:05.167Z,99801.09
2019-03-26T23:37:33.809Z,99805.94
2019-03-26T23:40:02.395Z,99802.13
2019-03-26T23:42:30.892Z,99805.59
2019-03-26T23:44:59.580Z,99813.45
2019-03-26T23:47:28.137Z,99812.55
2019-03-26T23:49:56.693Z,99812.10
2019-03-26T23:52:25.379Z,99807.74
2019-03-26T23:54:53.942Z,99812.90
2019-03-26T23:57:22.430Z,99814.64
2019-03-26T23:59:50.943Z,99821.16
